Řízení letového provozu České republiky
Letiste: LKMT Aktualizace: 17.10.2017 23:52:07  UTC
 METAR LKMT 17.10. 23:30 ...
METAR LKMT 172330Z 24007KT CAVOK 09/08 Q1020 NOSIG RMK REG QNH 1017=
 TAF LKMT 17.10. 23:00 ...
TAF LKMT 172300Z 1800/1906 21006KT CAVOK      TEMPO 1803/1807 3500 BR NSC      BECMG 1808/1810 23010KT      BECMG 1818/1821 19004KT      TEMPO 1902/1906 2500 BR NSC=